< Typhoon 201926 2019 Season Typhoon 201928 >
Typhoon 201927 (FUNG-WONG)
General InformationTrack Information on Google MapsDetailed Wind InformationForecast History on Google MapsAccess Analytics MapList of All Images || NewsDisaster Info.WeblogTrackbackTyphoon FrontTwiphoonTyphoon Now!Typhoon ImaginationJMA Disaster Info. XMLResourceGoogle EarthGE AnimationAtom FeedGeoJSON
Detalied Best Track (Time Zone = UTC)
Year Month Day Hour Lat. Long. Pressure (hPa) Wind (kt) Class Image Chart
2019 11 17 12 10.6 143.6 1008 0 2 Image Chart
2019 11 17 18 11.0 142.0 1006 0 2 Image Chart
2019 11 18 00 11.5 140.5 1008 0 2 Image Chart
2019 11 18 06 12.0 138.8 1006 0 2 Image Chart
2019 11 18 12 12.3 137.0 1008 0 2 Image Chart
2019 11 18 18 12.4 134.9 1006 0 2 Image Chart
2019 11 19 00 13.1 132.9 1004 0 2 Image Chart
2019 11 19 06 14.0 131.1 1002 0 2 Image Chart
2019 11 19 12 14.7 130.0 1002 0 2 Image Chart
2019 11 19 18 15.3 128.8 1002 0 2 Image Chart
2019 11 20 00 16.1 128.2 1000 35 3 Image Chart
2019 11 20 06 17.6 127.2 998 40 3 Image Chart
2019 11 20 12 19.0 126.0 994 45 3 Image Chart
2019 11 20 18 19.6 125.4 992 50 4 Image Chart
2019 11 21 00 20.2 125.0 990 55 4 Image Chart
2019 11 21 06 20.5 124.4 990 55 4 Image Chart
2019 11 21 12 21.3 124.3 994 50 4 Image Chart
2019 11 21 18 22.2 124.4 994 50 4 Image Chart
2019 11 22 00 22.9 125.0 996 45 3 Image Chart
2019 11 22 06 23.7 125.4 1002 35 3 Image Chart
2019 11 22 12 24.6 125.3 1010 0 2 Image Chart
2019 11 22 18 25.1 125.3 1010 0 2 Image Chart
2019 11 23 00 25.2 125.5 1012 0 2 Image Chart
2019 11 23 06 25.3 125.6 1012 0 2 Image Chart
2019 11 23 12 26.0 125.9 1014 0 2 Image Chart
2019 11 23 18 28.4 125.6 1014 0 6 Image Chart
2019 11 24 00 30.0 126.2 1014 0 6 Image Chart
2019 11 24 06 30.2 127.7 1012 0 6 Image Chart
2019 11 24 12 31.1 131.6 1016 0 6 Image Chart
2019 11 24 18 31.7 134.1 1014 0 6 Image Chart
2019 11 25 00 32.8 136.7 1014 0 6 Image Chart
Japan Meteorological Agency Best Track Data | Correction Date : 2020-01-16
< Typhoon 201926 2019 Season Typhoon 201928 >

Help